sensor_id;sensor_type;location;lat;lon;timestamp;temperature;humidity
16327;DHT22;34812;49.846;9.610;2022-10-19T00:01:01;13.00;99.90
16327;DHT22;34812;49.846;9.610;2022-10-19T00:02:03;13.00;99.90
16327;DHT22;34812;49.846;9.610;2022-10-19T00:03:05;13.00;99.90
16327;DHT22;34812;49.846;9.610;2022-10-19T00:04:07;13.00;99.90
16327;DHT22;34812;49.846;9.610;2022-10-19T00:05:08;13.00;99.90
16327;DHT22;34812;49.846;9.610;2022-10-19T00:06:12;13.10;99.90
16327;DHT22;34812;49.846;9.610;2022-10-19T00:07:13;13.00;99.90
16327;DHT22;34812;49.846;9.610;2022-10-19T00:08:15;13.10;99.90
16327;DHT22;34812;49.846;9.610;2022-10-19T00:09:17;13.10;99.90
16327;DHT22;34812;49.846;9.610;2022-10-19T00:10:19;13.10;99.90
16327;DHT22;34812;49.846;9.610;2022-10-19T00:11:20;13.20;99.90
16327;DHT22;34812;49.846;9.610;2022-10-19T00:12:23;13.10;99.90
16327;DHT22;34812;49.846;9.610;2022-10-19T00:13:23;13.20;99.90
16327;DHT22;34812;49.846;9.610;2022-10-19T00:14:25;13.10;99.90
16327;DHT22;34812;49.846;9.610;2022-10-19T00:15:26;13.10;99.90
16327;DHT22;34812;49.846;9.610;2022-10-19T00:16:30;13.20;99.90
16327;DHT22;34812;49.846;9.610;2022-10-19T00:17:33;13.20;99.90
16327;DHT22;34812;49.846;9.610;2022-10-19T00:18:36;13.20;99.90
16327;DHT22;34812;49.846;9.610;2022-10-19T00:19:37;13.20;99.90
16327;DHT22;34812;49.846;9.610;2022-10-19T00:20:38;13.20;99.90
16327;DHT22;34812;49.846;9.610;2022-10-19T00:21:39;13.20;99.90
16327;DHT22;34812;49.846;9.610;2022-10-19T00:22:41;13.30;99.90
16327;DHT22;34812;49.846;9.610;2022-10-19T00:23:44;13.20;99.90
16327;DHT22;34812;49.846;9.610;2022-10-19T00:24:45;13.20;99.90
16327;DHT22;34812;49.846;9.610;2022-10-19T00:25:54;13.20;99.90
16327;DHT22;34812;49.846;9.610;2022-10-19T00:26:55;13.30;99.90
16327;DHT22;34812;49.846;9.610;2022-10-19T00:27:57;13.20;99.90
16327;DHT22;34812;49.846;9.610;2022-10-19T00:28:58;13.20;99.90
16327;DHT22;34812;49.846;9.610;2022-10-19T00:29:59;13.30;99.90
16327;DHT22;34812;49.846;9.610;2022-10-19T00:31:02;13.30;99.90
16327;DHT22;34812;49.846;9.610;2022-10-19T00:32:04;13.30;99.90
16327;DHT22;34812;49.846;9.610;2022-10-19T00:33:05;13.30;99.90
16327;DHT22;34812;49.846;9.610;2022-10-19T00:34:08;13.30;99.90
16327;DHT22;34812;49.846;9.610;2022-10-19T00:35:09;13.30;99.90
16327;DHT22;34812;49.846;9.610;2022-10-19T00:36:15;13.30;99.90
16327;DHT22;34812;49.846;9.610;2022-10-19T00:37:16;13.30;99.90
16327;DHT22;34812;49.846;9.610;2022-10-19T00:38:19;13.30;99.90
16327;DHT22;34812;49.846;9.610;2022-10-19T00:39:20;13.30;99.90
16327;DHT22;34812;49.846;9.610;2022-10-19T00:40:22;13.30;99.90
16327;DHT22;34812;49.846;9.610;2022-10-19T00:41:25;13.30;99.90
16327;DHT22;34812;49.846;9.610;2022-10-19T00:42:27;13.30;99.90
16327;DHT22;34812;49.846;9.610;2022-10-19T00:43:29;13.20;99.90
16327;DHT22;34812;49.846;9.610;2022-10-19T00:45:01;13.30;99.90
16327;DHT22;34812;49.846;9.610;2022-10-19T00:46:02;13.30;99.90
16327;DHT22;34812;49.846;9.610;2022-10-19T00:47:05;13.20;99.90
16327;DHT22;34812;49.846;9.610;2022-10-19T00:48:08;13.10;99.90
16327;DHT22;34812;49.846;9.610;2022-10-19T00:49:14;13.20;99.90
16327;DHT22;34812;49.846;9.610;2022-10-19T00:50:16;13.20;99.90
16327;DHT22;34812;49.846;9.610;2022-10-19T00:51:19;13.20;99.90
16327;DHT22;34812;49.846;9.610;2022-10-19T00:52:23;13.20;99.90
16327;DHT22;34812;49.846;9.610;2022-10-19T00:53:27;13.20;99.90
16327;DHT22;34812;49.846;9.610;2022-10-19T00:54:30;13.20;99.90
16327;DHT22;34812;49.846;9.610;2022-10-19T00:55:33;13.20;99.90
16327;DHT22;34812;49.846;9.610;2022-10-19T00:56:35;13.20;99.90
16327;DHT22;34812;49.846;9.610;2022-10-19T00:57:39;13.20;99.90
16327;DHT22;34812;49.846;9.610;2022-10-19T00:58:41;13.20;99.90
16327;DHT22;34812;49.846;9.610;2022-10-19T00:59:45;13.30;99.90
16327;DHT22;34812;49.846;9.610;2022-10-19T01:00:46;13.20;99.90
16327;DHT22;34812;49.846;9.610;2022-10-19T01:01:48;13.20;99.90
16327;DHT22;34812;49.846;9.610;2022-10-19T01:02:49;13.20;99.90
16327;DHT22;34812;49.846;9.610;2022-10-19T01:03:51;13.20;99.90
16327;DHT22;34812;49.846;9.610;2022-10-19T01:04:53;13.20;99.90
16327;DHT22;34812;49.846;9.610;2022-10-19T01:05:55;13.20;99.90
16327;DHT22;34812;49.846;9.610;2022-10-19T01:06:56;13.20;99.90
16327;DHT22;34812;49.846;9.610;2022-10-19T01:07:59;13.20;99.90
16327;DHT22;34812;49.846;9.610;2022-10-19T01:09:00;13.20;99.90
16327;DHT22;34812;49.846;9.610;2022-10-19T01:10:03;13.20;99.90
16327;DHT22;34812;49.846;9.610;2022-10-19T01:11:15;13.20;99.90
16327;DHT22;34812;49.846;9.610;2022-10-19T01:12:32;13.10;99.90
16327;DHT22;34812;49.846;9.610;2022-10-19T01:13:43;13.10;99.90
16327;DHT22;34812;49.846;9.610;2022-10-19T01:14:59;13.10;99.90
16327;DHT22;34812;49.846;9.610;2022-10-19T01:16:06;13.20;99.90
16327;DHT22;34812;49.846;9.610;2022-10-19T01:17:16;13.10;99.90
16327;DHT22;34812;49.846;9.610;2022-10-19T01:18:27;13.10;99.90
16327;DHT22;34812;49.846;9.610;2022-10-19T01:20:20;13.10;99.90
16327;DHT22;34812;49.846;9.610;2022-10-19T01:21:30;13.10;99.90
16327;DHT22;34812;49.846;9.610;2022-10-19T01:22:44;13.10;99.90
16327;DHT22;34812;49.846;9.610;2022-10-19T01:25:45;13.10;99.90
16327;DHT22;34812;49.846;9.610;2022-10-19T01:28:38;13.10;99.90
16327;DHT22;34812;49.846;9.610;2022-10-19T01:30:06;13.10;99.90
16327;DHT22;34812;49.846;9.610;2022-10-19T01:31:13;13.10;99.90
16327;DHT22;34812;49.846;9.610;2022-10-19T01:32:22;13.10;99.90
16327;DHT22;34812;49.846;9.610;2022-10-19T01:33:36;13.10;99.90
16327;DHT22;34812;49.846;9.610;2022-10-19T01:34:43;13.00;99.90
16327;DHT22;34812;49.846;9.610;2022-10-19T01:35:50;13.00;99.90
16327;DHT22;34812;49.846;9.610;2022-10-19T01:37:00;13.00;99.90
16327;DHT22;34812;49.846;9.610;2022-10-19T01:38:14;13.00;99.90
16327;DHT22;34812;49.846;9.610;2022-10-19T01:39:24;13.00;99.90
16327;DHT22;34812;49.846;9.610;2022-10-19T01:40:33;13.00;99.90
16327;DHT22;34812;49.846;9.610;2022-10-19T01:41:42;13.00;99.90
16327;DHT22;34812;49.846;9.610;2022-10-19T01:42:51;13.00;99.90
16327;DHT22;34812;49.846;9.610;2022-10-19T01:44:00;13.10;99.90
16327;DHT22;34812;49.846;9.610;2022-10-19T01:45:12;13.10;99.90
16327;DHT22;34812;49.846;9.610;2022-10-19T01:46:18;13.10;99.90
16327;DHT22;34812;49.846;9.610;2022-10-19T01:47:25;13.10;99.90
16327;DHT22;34812;49.846;9.610;2022-10-19T01:48:28;13.10;99.90
16327;DHT22;34812;49.846;9.610;2022-10-19T01:49:34;13.10;99.90
16327;DHT22;34812;49.846;9.610;2022-10-19T01:50:42;13.10;99.90
16327;DHT22;34812;49.846;9.610;2022-10-19T01:51:48;13.10;99.90
16327;DHT22;34812;49.846;9.610;2022-10-19T01:52:50;13.00;99.90
16327;DHT22;34812;49.846;9.610;2022-10-19T01:53:56;13.00;99.90
16327;DHT22;34812;49.846;9.610;2022-10-19T01:54:59;13.00;99.90
16327;DHT22;34812;49.846;9.610;2022-10-19T01:56:04;13.00;99.90
16327;DHT22;34812;49.846;9.610;2022-10-19T01:57:08;13.00;99.90
16327;DHT22;34812;49.846;9.610;2022-10-19T01:58:14;13.00;99.90
16327;DHT22;34812;49.846;9.610;2022-10-19T01:59:18;13.00;99.90
16327;DHT22;34812;49.846;9.610;2022-10-19T02:00:23;13.00;99.90
16327;DHT22;34812;49.846;9.610;2022-10-19T02:01:26;13.00;99.90
16327;DHT22;34812;49.846;9.610;2022-10-19T02:02:30;13.00;99.90
16327;DHT22;34812;49.846;9.610;2022-10-19T02:03:33;13.00;99.90
16327;DHT22;34812;49.846;9.610;2022-10-19T02:04:36;13.00;99.90
16327;DHT22;34812;49.846;9.610;2022-10-19T02:05:38;13.00;99.90
16327;DHT22;34812;49.846;9.610;2022-10-19T02:06:40;13.00;99.90
16327;DHT22;34812;49.846;9.610;2022-10-19T02:07:44;13.00;99.90
16327;DHT22;34812;49.846;9.610;2022-10-19T02:08:48;13.00;99.90
16327;DHT22;34812;49.846;9.610;2022-10-19T02:09:50;13.00;99.90
16327;DHT22;34812;49.846;9.610;2022-10-19T02:10:52;13.00;99.90
16327;DHT22;34812;49.846;9.610;2022-10-19T02:11:56;13.00;99.90
16327;DHT22;34812;49.846;9.610;2022-10-19T02:13:01;13.00;99.90
16327;DHT22;34812;49.846;9.610;2022-10-19T02:14:08;13.00;99.90
16327;DHT22;34812;49.846;9.610;2022-10-19T02:15:14;13.00;99.90
16327;DHT22;34812;49.846;9.610;2022-10-19T02:16:21;13.00;99.90
16327;DHT22;34812;49.846;9.610;2022-10-19T02:17:27;13.00;99.90
16327;DHT22;34812;49.846;9.610;2022-10-19T02:18:33;13.00;99.90
16327;DHT22;34812;49.846;9.610;2022-10-19T02:19:36;13.00;99.90
16327;DHT22;34812;49.846;9.610;2022-10-19T02:20:37;13.00;99.90
16327;DHT22;34812;49.846;9.610;2022-10-19T02:21:39;12.90;99.90
16327;DHT22;34812;49.846;9.610;2022-10-19T02:22:40;13.00;99.90
16327;DHT22;34812;49.846;9.610;2022-10-19T02:23:42;13.00;99.90
16327;DHT22;34812;49.846;9.610;2022-10-19T02:24:43;12.90;99.90
16327;DHT22;34812;49.846;9.610;2022-10-19T02:25:45;13.00;99.90
16327;DHT22;34812;49.846;9.610;2022-10-19T02:26:46;12.90;99.90
16327;DHT22;34812;49.846;9.610;2022-10-19T02:27:48;12.90;99.90
16327;DHT22;34812;49.846;9.610;2022-10-19T02:28:49;12.90;99.90
16327;DHT22;34812;49.846;9.610;2022-10-19T02:29:51;12.90;99.90
16327;DHT22;34812;49.846;9.610;2022-10-19T02:30:53;12.80;99.90
16327;DHT22;34812;49.846;9.610;2022-10-19T02:31:56;12.80;99.90
16327;DHT22;34812;49.846;9.610;2022-10-19T02:32:57;12.90;99.90
16327;DHT22;34812;49.846;9.610;2022-10-19T02:33:59;12.90;99.90
16327;DHT22;34812;49.846;9.610;2022-10-19T02:34:59;12.90;99.90
16327;DHT22;34812;49.846;9.610;2022-10-19T02:36:01;12.90;99.90
16327;DHT22;34812;49.846;9.610;2022-10-19T02:37:03;12.90;99.90
16327;DHT22;34812;49.846;9.610;2022-10-19T02:38:06;12.90;99.90
16327;DHT22;34812;49.846;9.610;2022-10-19T02:39:09;12.90;99.90
16327;DHT22;34812;49.846;9.610;2022-10-19T02:40:11;12.90;99.90
16327;DHT22;34812;49.846;9.610;2022-10-19T02:41:16;13.00;99.90
16327;DHT22;34812;49.846;9.610;2022-10-19T02:42:21;13.00;99.90
16327;DHT22;34812;49.846;9.610;2022-10-19T02:43:25;12.90;99.90
16327;DHT22;34812;49.846;9.610;2022-10-19T02:44:32;12.90;99.90
16327;DHT22;34812;49.846;9.610;2022-10-19T02:45:41;13.00;99.90
16327;DHT22;34812;49.846;9.610;2022-10-19T02:46:48;13.00;99.90
16327;DHT22;34812;49.846;9.610;2022-10-19T02:47:54;12.90;99.90
16327;DHT22;34812;49.846;9.610;2022-10-19T02:48:57;12.90;99.90
16327;DHT22;34812;49.846;9.610;2022-10-19T02:49:58;12.90;99.90
16327;DHT22;34812;49.846;9.610;2022-10-19T02:51:00;12.90;99.90
16327;DHT22;34812;49.846;9.610;2022-10-19T02:52:02;12.90;99.90
16327;DHT22;34812;49.846;9.610;2022-10-19T02:53:05;12.90;99.90
16327;DHT22;34812;49.846;9.610;2022-10-19T02:54:06;12.90;99.90
16327;DHT22;34812;49.846;9.610;2022-10-19T02:55:08;12.90;99.90
16327;DHT22;34812;49.846;9.610;2022-10-19T02:56:09;12.90;99.90
16327;DHT22;34812;49.846;9.610;2022-10-19T02:57:15;12.90;99.90
16327;DHT22;34812;49.846;9.610;2022-10-19T02:58:16;12.90;99.90
16327;DHT22;34812;49.846;9.610;2022-10-19T02:59:18;12.90;99.90
16327;DHT22;34812;49.846;9.610;2022-10-19T03:00:19;12.90;99.90
16327;DHT22;34812;49.846;9.610;2022-10-19T03:01:21;12.90;99.90
16327;DHT22;34812;49.846;9.610;2022-10-19T03:02:21;12.90;99.90
16327;DHT22;34812;49.846;9.610;2022-10-19T03:03:24;12.90;99.90
16327;DHT22;34812;49.846;9.610;2022-10-19T03:04:25;12.90;99.90
16327;DHT22;34812;49.846;9.610;2022-10-19T03:05:27;12.80;99.90
16327;DHT22;34812;49.846;9.610;2022-10-19T03:06:27;12.80;99.90
16327;DHT22;34812;49.846;9.610;2022-10-19T03:07:29;12.90;99.90
16327;DHT22;34812;49.846;9.610;2022-10-19T03:08:30;12.90;99.90
16327;DHT22;34812;49.846;9.610;2022-10-19T03:09:32;12.90;99.90
16327;DHT22;34812;49.846;9.610;2022-10-19T03:10:32;12.80;99.90
16327;DHT22;34812;49.846;9.610;2022-10-19T03:11:34;12.90;99.90
16327;DHT22;34812;49.846;9.610;2022-10-19T03:12:35;12.90;99.90
16327;DHT22;34812;49.846;9.610;2022-10-19T03:13:37;12.90;99.90
16327;DHT22;34812;49.846;9.610;2022-10-19T03:14:38;12.90;99.90
16327;DHT22;34812;49.846;9.610;2022-10-19T03:15:39;12.90;99.90
16327;DHT22;34812;49.846;9.610;2022-10-19T03:16:41;12.90;99.90
16327;DHT22;34812;49.846;9.610;2022-10-19T03:17:42;12.80;99.90
16327;DHT22;34812;49.846;9.610;2022-10-19T03:18:46;12.90;99.90
16327;DHT22;34812;49.846;9.610;2022-10-19T03:19:47;12.90;99.90
16327;DHT22;34812;49.846;9.610;2022-10-19T03:20:49;12.80;99.90
16327;DHT22;34812;49.846;9.610;2022-10-19T03:21:49;12.80;99.90
16327;DHT22;34812;49.846;9.610;2022-10-19T03:22:51;12.80;99.90
16327;DHT22;34812;49.846;9.610;2022-10-19T03:23:52;12.90;99.90
16327;DHT22;34812;49.846;9.610;2022-10-19T03:24:54;12.80;99.90
16327;DHT22;34812;49.846;9.610;2022-10-19T03:25:54;12.90;99.90
16327;DHT22;34812;49.846;9.610;2022-10-19T03:26:56;12.80;99.90
16327;DHT22;34812;49.846;9.610;2022-10-19T03:27:57;12.80;99.90
16327;DHT22;34812;49.846;9.610;2022-10-19T03:28:59;12.80;99.90
16327;DHT22;34812;49.846;9.610;2022-10-19T03:29:59;12.90;99.90
16327;DHT22;34812;49.846;9.610;2022-10-19T03:31:01;12.80;99.90
16327;DHT22;34812;49.846;9.610;2022-10-19T03:32:02;12.90;99.90
16327;DHT22;34812;49.846;9.610;2022-10-19T03:33:04;12.80;99.90
16327;DHT22;34812;49.846;9.610;2022-10-19T03:34:06;12.90;99.90
16327;DHT22;34812;49.846;9.610;2022-10-19T03:35:08;12.80;99.90
16327;DHT22;34812;49.846;9.610;2022-10-19T03:36:17;12.90;99.90
16327;DHT22;34812;49.846;9.610;2022-10-19T03:37:19;12.80;99.90
16327;DHT22;34812;49.846;9.610;2022-10-19T03:38:20;12.80;99.90
16327;DHT22;34812;49.846;9.610;2022-10-19T03:39:22;12.80;99.90
16327;DHT22;34812;49.846;9.610;2022-10-19T03:40:23;12.80;99.90
16327;DHT22;34812;49.846;9.610;2022-10-19T03:41:26;12.90;99.90
16327;DHT22;34812;49.846;9.610;2022-10-19T03:42:26;12.90;99.90
16327;DHT22;34812;49.846;9.610;2022-10-19T03:43:28;12.80;99.90
16327;DHT22;34812;49.846;9.610;2022-10-19T03:44:29;12.80;99.90
16327;DHT22;34812;49.846;9.610;2022-10-19T03:45:31;12.80;99.90
16327;DHT22;34812;49.846;9.610;2022-10-19T03:46:32;12.80;99.90
16327;DHT22;34812;49.846;9.610;2022-10-19T03:47:34;12.80;99.90
16327;DHT22;34812;49.846;9.610;2022-10-19T03:48:35;12.80;99.90
16327;DHT22;34812;49.846;9.610;2022-10-19T03:49:39;12.70;99.90
16327;DHT22;34812;49.846;9.610;2022-10-19T03:50:40;12.80;99.90
16327;DHT22;34812;49.846;9.610;2022-10-19T03:51:42;12.80;99.90
16327;DHT22;34812;49.846;9.610;2022-10-19T03:52:43;12.70;99.90
16327;DHT22;34812;49.846;9.610;2022-10-19T03:53:46;12.70;99.90
16327;DHT22;34812;49.846;9.610;2022-10-19T03:54:49;12.70;99.90
16327;DHT22;34812;49.846;9.610;2022-10-19T03:55:51;12.70;99.90
16327;DHT22;34812;49.846;9.610;2022-10-19T03:56:52;12.70;99.90
16327;DHT22;34812;49.846;9.610;2022-10-19T03:57:53;12.70;99.90
16327;DHT22;34812;49.846;9.610;2022-10-19T03:58:55;12.60;99.90
16327;DHT22;34812;49.846;9.610;2022-10-19T03:59:57;12.60;99.90
16327;DHT22;34812;49.846;9.610;2022-10-19T04:00:58;12.60;99.90
16327;DHT22;34812;49.846;9.610;2022-10-19T04:02:00;12.60;99.90
16327;DHT22;34812;49.846;9.610;2022-10-19T04:03:01;12.60;99.90
16327;DHT22;34812;49.846;9.610;2022-10-19T04:04:04;12.60;99.90
16327;DHT22;34812;49.846;9.610;2022-10-19T04:05:07;12.60;99.90
16327;DHT22;34812;49.846;9.610;2022-10-19T04:06:12;12.60;99.90
16327;DHT22;34812;49.846;9.610;2022-10-19T04:07:13;12.60;99.90
16327;DHT22;34812;49.846;9.610;2022-10-19T04:08:15;12.60;99.90
16327;DHT22;34812;49.846;9.610;2022-10-19T04:09:18;12.50;99.90
16327;DHT22;34812;49.846;9.610;2022-10-19T04:10:19;12.60;99.90
16327;DHT22;34812;49.846;9.610;2022-10-19T04:11:22;12.60;99.90
16327;DHT22;34812;49.846;9.610;2022-10-19T04:12:24;12.60;99.90
16327;DHT22;34812;49.846;9.610;2022-10-19T04:13:26;12.60;99.90
16327;DHT22;34812;49.846;9.610;2022-10-19T04:14:27;12.60;99.90
16327;DHT22;34812;49.846;9.610;2022-10-19T04:15:29;12.60;99.90
16327;DHT22;34812;49.846;9.610;2022-10-19T04:16:31;12.60;99.90
16327;DHT22;34812;49.846;9.610;2022-10-19T04:17:32;12.60;99.90
16327;DHT22;34812;49.846;9.610;2022-10-19T04:18:33;12.50;99.90
16327;DHT22;34812;49.846;9.610;2022-10-19T04:19:35;12.50;99.90
16327;DHT22;34812;49.846;9.610;2022-10-19T04:20:38;12.50;99.90
16327;DHT22;34812;49.846;9.610;2022-10-19T04:21:42;12.50;99.90
16327;DHT22;34812;49.846;9.610;2022-10-19T04:22:44;12.40;99.90
16327;DHT22;34812;49.846;9.610;2022-10-19T04:23:45;12.40;99.90
16327;DHT22;34812;49.846;9.610;2022-10-19T04:24:46;12.40;99.90
16327;DHT22;34812;49.846;9.610;2022-10-19T04:25:48;12.40;99.90
16327;DHT22;34812;49.846;9.610;2022-10-19T04:26:51;12.40;99.90
16327;DHT22;34812;49.846;9.610;2022-10-19T04:27:53;12.40;99.90
16327;DHT22;34812;49.846;9.610;2022-10-19T04:28:55;12.40;99.90
16327;DHT22;34812;49.846;9.610;2022-10-19T04:29:57;12.40;99.90
16327;DHT22;34812;49.846;9.610;2022-10-19T04:31:01;12.50;99.90
16327;DHT22;34812;49.846;9.610;2022-10-19T04:32:03;12.40;99.90
16327;DHT22;34812;49.846;9.610;2022-10-19T04:33:03;12.50;99.90
16327;DHT22;34812;49.846;9.610;2022-10-19T04:34:05;12.50;99.90
16327;DHT22;34812;49.846;9.610;2022-10-19T04:35:06;12.50;99.90
16327;DHT22;34812;49.846;9.610;2022-10-19T04:36:11;12.50;99.90
16327;DHT22;34812;49.846;9.610;2022-10-19T04:37:11;12.40;99.90
16327;DHT22;34812;49.846;9.610;2022-10-19T04:38:13;12.40;99.90
16327;DHT22;34812;49.846;9.610;2022-10-19T04:39:14;12.40;99.90
16327;DHT22;34812;49.846;9.610;2022-10-19T04:40:16;12.40;99.90
16327;DHT22;34812;49.846;9.610;2022-10-19T04:41:19;12.40;99.90
16327;DHT22;34812;49.846;9.610;2022-10-19T04:42:21;12.30;99.90
16327;DHT22;34812;49.846;9.610;2022-10-19T04:43:22;12.40;99.90
16327;DHT22;34812;49.846;9.610;2022-10-19T04:44:24;12.40;99.90
16327;DHT22;34812;49.846;9.610;2022-10-19T04:45:24;12.40;99.90
16327;DHT22;34812;49.846;9.610;2022-10-19T04:46:27;12.40;99.90
16327;DHT22;34812;49.846;9.610;2022-10-19T04:47:28;12.40;99.90
16327;DHT22;34812;49.846;9.610;2022-10-19T04:48:30;12.30;99.90
16327;DHT22;34812;49.846;9.610;2022-10-19T04:49:31;12.30;99.90
16327;DHT22;34812;49.846;9.610;2022-10-19T04:50:33;12.30;99.90
16327;DHT22;34812;49.846;9.610;2022-10-19T04:51:35;12.30;99.90
16327;DHT22;34812;49.846;9.610;2022-10-19T04:52:37;12.30;99.90
16327;DHT22;34812;49.846;9.610;2022-10-19T04:53:39;12.30;99.90
16327;DHT22;34812;49.846;9.610;2022-10-19T04:54:41;12.30;99.90
16327;DHT22;34812;49.846;9.610;2022-10-19T04:55:42;12.30;99.90
16327;DHT22;34812;49.846;9.610;2022-10-19T04:56:44;12.30;99.90
16327;DHT22;34812;49.846;9.610;2022-10-19T04:57:44;12.30;99.90
16327;DHT22;34812;49.846;9.610;2022-10-19T04:58:47;12.30;99.90
16327;DHT22;34812;49.846;9.610;2022-10-19T04:59:47;12.30;99.90
16327;DHT22;34812;49.846;9.610;2022-10-19T05:00:49;12.30;99.90
16327;DHT22;34812;49.846;9.610;2022-10-19T05:01:50;12.30;99.90
16327;DHT22;34812;49.846;9.610;2022-10-19T05:02:52;12.30;99.90
16327;DHT22;34812;49.846;9.610;2022-10-19T05:03:53;12.30;99.90
16327;DHT22;34812;49.846;9.610;2022-10-19T05:04:55;12.30;99.90
16327;DHT22;34812;49.846;9.610;2022-10-19T05:05:58;12.30;99.90
16327;DHT22;34812;49.846;9.610;2022-10-19T05:07:01;12.30;99.90
16327;DHT22;34812;49.846;9.610;2022-10-19T05:08:03;12.30;99.90
16327;DHT22;34812;49.846;9.610;2022-10-19T05:09:04;12.30;99.90
16327;DHT22;34812;49.846;9.610;2022-10-19T05:10:11;12.30;99.90
16327;DHT22;34812;49.846;9.610;2022-10-19T05:11:13;12.30;99.90
16327;DHT22;34812;49.846;9.610;2022-10-19T05:12:15;12.20;99.90
16327;DHT22;34812;49.846;9.610;2022-10-19T05:13:16;12.20;99.90
16327;DHT22;34812;49.846;9.610;2022-10-19T05:14:17;12.20;99.90
16327;DHT22;34812;49.846;9.610;2022-10-19T05:15:19;12.20;99.90
16327;DHT22;34812;49.846;9.610;2022-10-19T05:16:21;12.20;99.90
16327;DHT22;34812;49.846;9.610;2022-10-19T05:17:23;12.20;99.90
16327;DHT22;34812;49.846;9.610;2022-10-19T05:18:24;12.20;99.90
16327;DHT22;34812;49.846;9.610;2022-10-19T05:19:26;12.20;99.90
16327;DHT22;34812;49.846;9.610;2022-10-19T05:20:27;12.20;99.90
16327;DHT22;34812;49.846;9.610;2022-10-19T05:21:28;12.20;99.90
16327;DHT22;34812;49.846;9.610;2022-10-19T05:22:31;12.20;99.90
16327;DHT22;34812;49.846;9.610;2022-10-19T05:23:33;12.20;99.90
16327;DHT22;34812;49.846;9.610;2022-10-19T05:24:34;12.20;99.90
16327;DHT22;34812;49.846;9.610;2022-10-19T05:25:36;12.20;99.90
16327;DHT22;34812;49.846;9.610;2022-10-19T05:26:36;12.10;99.90
16327;DHT22;34812;49.846;9.610;2022-10-19T05:27:38;12.10;99.90
16327;DHT22;34812;49.846;9.610;2022-10-19T05:28:39;12.10;99.90
16327;DHT22;34812;49.846;9.610;2022-10-19T05:29:41;12.10;99.90
16327;DHT22;34812;49.846;9.610;2022-10-19T05:30:42;12.10;99.90
16327;DHT22;34812;49.846;9.610;2022-10-19T05:31:43;12.10;99.90
16327;DHT22;34812;49.846;9.610;2022-10-19T05:32:44;12.10;99.90
16327;DHT22;34812;49.846;9.610;2022-10-19T05:33:46;12.10;99.90
16327;DHT22;34812;49.846;9.610;2022-10-19T05:34:47;12.10;99.90
16327;DHT22;34812;49.846;9.610;2022-10-19T05:35:49;12.10;99.90
16327;DHT22;34812;49.846;9.610;2022-10-19T05:36:49;12.20;99.90
16327;DHT22;34812;49.846;9.610;2022-10-19T05:37:54;12.20;99.90
16327;DHT22;34812;49.846;9.610;2022-10-19T05:38:56;12.10;99.90
16327;DHT22;34812;49.846;9.610;2022-10-19T05:39:58;12.10;99.90
16327;DHT22;34812;49.846;9.610;2022-10-19T05:40:58;12.10;99.90
16327;DHT22;34812;49.846;9.610;2022-10-19T05:42:00;12.10;99.90
16327;DHT22;34812;49.846;9.610;2022-10-19T05:43:02;12.10;99.90
16327;DHT22;34812;49.846;9.610;2022-10-19T05:44:04;12.10;99.90
16327;DHT22;34812;49.846;9.610;2022-10-19T05:45:06;12.10;99.90
16327;DHT22;34812;49.846;9.610;2022-10-19T05:46:09;12.10;99.90
16327;DHT22;34812;49.846;9.610;2022-10-19T05:47:11;12.10;99.90
16327;DHT22;34812;49.846;9.610;2022-10-19T05:48:12;12.10;99.90
16327;DHT22;34812;49.846;9.610;2022-10-19T05:49:15;12.10;99.90
16327;DHT22;34812;49.846;9.610;2022-10-19T05:50:16;12.10;99.90
16327;DHT22;34812;49.846;9.610;2022-10-19T05:51:21;12.10;99.90
16327;DHT22;34812;49.846;9.610;2022-10-19T05:52:23;12.10;99.90
16327;DHT22;34812;49.846;9.610;2022-10-19T05:53:25;12.10;99.90
16327;DHT22;34812;49.846;9.610;2022-10-19T05:54:27;12.10;99.90
16327;DHT22;34812;49.846;9.610;2022-10-19T05:55:28;12.10;99.90
16327;DHT22;34812;49.846;9.610;2022-10-19T05:56:31;12.10;99.90
16327;DHT22;34812;49.846;9.610;2022-10-19T05:57:33;12.10;99.90
16327;DHT22;34812;49.846;9.610;2022-10-19T05:58:34;12.10;99.90
16327;DHT22;34812;49.846;9.610;2022-10-19T05:59:35;12.10;99.90
16327;DHT22;34812;49.846;9.610;2022-10-19T06:00:36;12.10;99.90
16327;DHT22;34812;49.846;9.610;2022-10-19T06:01:38;12.10;99.90
16327;DHT22;34812;49.846;9.610;2022-10-19T06:02:39;12.20;99.90
16327;DHT22;34812;49.846;9.610;2022-10-19T06:03:41;12.20;99.90
16327;DHT22;34812;49.846;9.610;2022-10-19T06:04:42;12.10;99.90
16327;DHT22;34812;49.846;9.610;2022-10-19T06:05:44;12.20;99.90
16327;DHT22;34812;49.846;9.610;2022-10-19T06:06:44;12.10;99.90
16327;DHT22;34812;49.846;9.610;2022-10-19T06:07:46;12.10;99.90
16327;DHT22;34812;49.846;9.610;2022-10-19T06:08:49;12.10;99.90
16327;DHT22;34812;49.846;9.610;2022-10-19T06:09:51;12.10;99.90
16327;DHT22;34812;49.846;9.610;2022-10-19T06:11:03;12.20;99.90
16327;DHT22;34812;49.846;9.610;2022-10-19T06:12:04;12.20;99.90
16327;DHT22;34812;49.846;9.610;2022-10-19T06:13:06;12.10;99.90
16327;DHT22;34812;49.846;9.610;2022-10-19T06:14:11;12.20;99.90
16327;DHT22;34812;49.846;9.610;2022-10-19T06:15:13;12.20;99.90
16327;DHT22;34812;49.846;9.610;2022-10-19T06:16:15;12.10;99.90
16327;DHT22;34812;49.846;9.610;2022-10-19T06:17:17;12.20;99.90
16327;DHT22;34812;49.846;9.610;2022-10-19T06:18:17;12.20;99.90
16327;DHT22;34812;49.846;9.610;2022-10-19T06:19:19;12.20;99.90
16327;DHT22;34812;49.846;9.610;2022-10-19T06:20:20;12.20;99.90
16327;DHT22;34812;49.846;9.610;2022-10-19T06:21:24;12.20;99.90
16327;DHT22;34812;49.846;9.610;2022-10-19T06:22:25;12.20;99.90
16327;DHT22;34812;49.846;9.610;2022-10-19T06:23:26;12.30;99.90
16327;DHT22;34812;49.846;9.610;2022-10-19T06:24:29;12.20;99.90
16327;DHT22;34812;49.846;9.610;2022-10-19T06:25:30;12.30;99.90
16327;DHT22;34812;49.846;9.610;2022-10-19T06:26:33;12.30;99.90
16327;DHT22;34812;49.846;9.610;2022-10-19T06:27:35;12.30;99.90
16327;DHT22;34812;49.846;9.610;2022-10-19T06:28:37;12.30;99.90
16327;DHT22;34812;49.846;9.610;2022-10-19T06:29:39;12.30;99.90
16327;DHT22;34812;49.846;9.610;2022-10-19T06:30:40;12.30;99.90
16327;DHT22;34812;49.846;9.610;2022-10-19T06:31:42;12.30;99.90
16327;DHT22;34812;49.846;9.610;2022-10-19T06:32:42;12.30;99.90
16327;DHT22;34812;49.846;9.610;2022-10-19T06:33:44;12.30;99.90
16327;DHT22;34812;49.846;9.610;2022-10-19T06:34:46;12.30;99.90
16327;DHT22;34812;49.846;9.610;2022-10-19T06:35:47;12.30;99.90
16327;DHT22;34812;49.846;9.610;2022-10-19T06:36:49;12.30;99.90
16327;DHT22;34812;49.846;9.610;2022-10-19T06:37:50;12.40;99.90
16327;DHT22;34812;49.846;9.610;2022-10-19T06:38:52;12.30;99.90
16327;DHT22;34812;49.846;9.610;2022-10-19T06:39:55;12.30;99.90
16327;DHT22;34812;49.846;9.610;2022-10-19T06:40:57;12.30;99.90
16327;DHT22;34812;49.846;9.610;2022-10-19T06:41:58;12.40;99.90